CMA-CGM Fort Saint Pierre — FQFM — position and weather

sailwx.info

Track history (hours):
 
Tides and Currents Weather Stations Pressure Air Temp Water Temp Dewpoint Dewpoint Depression Visibility Wind Speed Wind Dir Waves Ship Positions

CMA-CGM Fort Saint Pierre

Last reported at 2015-Apr-21 09:30 UTC. Time now 2015-Apr-21 23:25 UTC.
Position N 16°13' W 061°32'.

Length 197 m; beam 30 m.

Type: Ship (hazmat cat A). MMSI: 226328000.

Date/timePositionNaut miles runAvg speedWind from/ knotsBaromVisibWave heightAir tempDewpointWater temp
2015-Apr-21 09:30N 16°13' W 061°32'  
2015-Apr-16 02:28N 36°06' W 026°08'1617.5
2015-Apr-16 01:33N 36°14' W 025°50'1817.5
2015-Apr-16 00:33N 36°23' W 025°32'1817.9
2015-Apr-15 23:33N 36°33' W 025°13'1817.7
2015-Apr-15 22:33N 36°43' W 024°55'1817.9
2015-Apr-15 21:34N 36°54' W 024°37'1818.2
2015-Apr-15 20:33N 37°05' W 024°19'1817.7
2015-Apr-15 19:33N 37°16' W 024°02'1817.5
2015-Apr-15 18:33N 37°26' W 023°44'1717.1
2015-Apr-15 17:32N 37°37' W 023°27'1817.0
2015-Apr-15 16:28N 37°49' W 023°09'1517.0
2015-Apr-15 15:34N 37°58' W 022°53'1817.4
2015-Apr-15 14:30N 38°09' W 022°35'  
2015-Apr-13 09:33N 46°39' W 003°46'2020.3
2015-Apr-13 08:34N 46°48' W 003°19'2020.2
2015-Apr-13 07:33N 46°57' W 002°53'2119.3
2015-Apr-13 06:27N 47°06' W 002°24'1213.6
2015-Apr-13 05:32N 47°15' W 002°13'3 3.0
2015-Apr-13 04:28N 47°18' W 002°09'0 0.0
2015-Apr-13 03:23N 47°18' W 002°09'0 0.0
2015-Apr-12 23:16N 47°18' W 002°09'0 0.0
2015-Apr-12 22:32N 47°18' W 002°09'0 0.0
2015-Apr-12 21:32N 47°18' W 002°09'0 0.0
2015-Apr-12 20:28N 47°18' W 002°09'0 0.0
2015-Apr-12 18:16N 47°18' W 002°09'0 0.0
2015-Apr-12 14:22N 47°18' W 002°09'0 0.0
2015-Apr-12 13:25N 47°18' W 002°09'10 9.8
2015-Apr-12 12:21N 47°10' W 002°19'7 6.1
2015-Apr-12 11:12N 47°05' W 002°26'1014.9
2015-Apr-12 10:33N 46°60' W 002°39'2316.5
2015-Apr-12 09:08N 47°08' W 003°11'1817.3
2015-Apr-12 08:07N 47°16' W 003°34'1017.2
2015-Apr-12 07:33N 47°20' W 003°47'1717.0
2015-Apr-12 06:33N 47°29' W 004°08'3919.5
2015-Apr-12 04:34N 47°52' W 004°54'2120.8
2015-Apr-12 03:34N 48°03' W 005°21'2121.2
2015-Apr-12 02:33N 48°18' W 005°44'3718.6
2015-Apr-12 00:33N 48°55' W 005°39'11020.1
2015-Apr-11 19:05N 49°52' W 003°15'3622.5
2015-Apr-11 17:28N 50°02' W 002°21'6422.0
2015-Apr-11 14:33N 49°43' W 000°46'2020.2
2015-Apr-11 13:33N 49°34' W 000°17'1514.6
2015-Apr-11 12:33N 49°30' E 000°04'4 3.8
2015-Apr-11 11:33N 49°28' E 000°09'0 0.0
2015-Apr-11 10:33N 49°28' E 000°09'0 0.0
2015-Apr-11 09:33N 49°28' E 000°09'  
Track history (hours):
 
Tides and Currents Weather Stations Pressure Air Temp Water Temp Dewpoint Dewpoint Depression Visibility Wind Speed Wind Dir Waves Ship Positions

CMA-CGM Fort Saint Pierre

Last reported at 2015-Apr-21 09:30 UTC. Time now 2015-Apr-21 23:25 UTC.
Position N 16°13' W 061°32'.

Length 197 m; beam 30 m.

Type: Ship (hazmat cat A). MMSI: 226328000.

Date/timePositionNaut miles runAvg speedWind from/ knotsBaromVisibWave heightAir tempDewpointWater temp
2015-Apr-21 09:30N 16°13' W 061°32'  
2015-Apr-16 02:28N 36°06' W 026°08'1617.5
2015-Apr-16 01:33N 36°14' W 025°50'1817.5
2015-Apr-16 00:33N 36°23' W 025°32'1817.9
2015-Apr-15 23:33N 36°33' W 025°13'1817.7
2015-Apr-15 22:33N 36°43' W 024°55'1817.9
2015-Apr-15 21:34N 36°54' W 024°37'1818.2
2015-Apr-15 20:33N 37°05' W 024°19'1817.7
2015-Apr-15 19:33N 37°16' W 024°02'1817.5
2015-Apr-15 18:33N 37°26' W 023°44'1717.1
2015-Apr-15 17:32N 37°37' W 023°27'1817.0
2015-Apr-15 16:28N 37°49' W 023°09'1517.0
2015-Apr-15 15:34N 37°58' W 022°53'1817.4
2015-Apr-15 14:30N 38°09' W 022°35'  
2015-Apr-13 09:33N 46°39' W 003°46'2020.3
2015-Apr-13 08:34N 46°48' W 003°19'2020.2
2015-Apr-13 07:33N 46°57' W 002°53'2119.3
2015-Apr-13 06:27N 47°06' W 002°24'1213.6
2015-Apr-13 05:32N 47°15' W 002°13'3 3.0
2015-Apr-13 04:28N 47°18' W 002°09'0 0.0
2015-Apr-13 03:23N 47°18' W 002°09'0 0.0
2015-Apr-12 23:16N 47°18' W 002°09'0 0.0
2015-Apr-12 22:32N 47°18' W 002°09'0 0.0
2015-Apr-12 21:32N 47°18' W 002°09'0 0.0
2015-Apr-12 20:28N 47°18' W 002°09'0 0.0
2015-Apr-12 18:16N 47°18' W 002°09'0 0.0
2015-Apr-12 14:22N 47°18' W 002°09'0 0.0
2015-Apr-12 13:25N 47°18' W 002°09'10 9.8
2015-Apr-12 12:21N 47°10' W 002°19'7 6.1
2015-Apr-12 11:12N 47°05' W 002°26'1014.9
2015-Apr-12 10:33N 46°60' W 002°39'2316.5
2015-Apr-12 09:08N 47°08' W 003°11'1817.3
2015-Apr-12 08:07N 47°16' W 003°34'1017.2
2015-Apr-12 07:33N 47°20' W 003°47'1717.0
2015-Apr-12 06:33N 47°29' W 004°08'3919.5
2015-Apr-12 04:34N 47°52' W 004°54'2120.8
2015-Apr-12 03:34N 48°03' W 005°21'2121.2
2015-Apr-12 02:33N 48°18' W 005°44'3718.6
2015-Apr-12 00:33N 48°55' W 005°39'11020.1
2015-Apr-11 19:05N 49°52' W 003°15'3622.5
2015-Apr-11 17:28N 50°02' W 002°21'6422.0
2015-Apr-11 14:33N 49°43' W 000°46'2020.2
2015-Apr-11 13:33N 49°34' W 000°17'1514.6
2015-Apr-11 12:33N 49°30' E 000°04'4 3.8
2015-Apr-11 11:33N 49°28' E 000°09'0 0.0
2015-Apr-11 10:33N 49°28' E 000°09'0 0.0
2015-Apr-11 09:33N 49°28' E 000°09'  

Dump ship's entire track history